Hlavní strana
METAR-TAF:

METAR-TAF

Letiště :

Clarksville, Tennessee, Spojené státy americké

zeměpisná šířka: 36-37-19N, zeměpisná délka: 087-24-54W, výška: 168 m

Aktuální stav počasí

Zpráva byla vytvořena před 12 minutami, v 06:52 UTC
Severní vítr 12 kt
Teplota 3°C
Vlhkost vzduchu 93%
Tlak 1022 hPa
Viditelnost: 6.4 km
Zataženo ve výšce 900 ft
slabý déšť, kouřmo

METAR: KCKV 130652Z AUTO 35012KT 4SM -RA BR OVC009 03/02 A3019 RMK AO2 SLP225 P0006 T00330017

Čas: 01:04 (07:04 UTC)

Předpověď počasí

Zpráva byla vytvořena před 1 hodinou a 44 minutami, v 05:20 UTC
Předpověď platná od 13 v 06 UTC do 14 v 06 UTC
Severní vítr 12 kt
Viditelnost: 4.8 km
Zataženo ve výšce 800 ft
slabé dešťové přeháňky, kouřmo
Od 13 v 1400 UTC
Severní vítr 13 kt
Viditelnost: 10 km
Zataženo ve výšce 1500 ft
Od 13 v 2200 UTC
Severní vítr 10 kt
Viditelnost: 10 km
Zataženo ve výšce 2500 ft

TAF: KCKV 130520Z 1306/1406 36012KT 3SM -SHRA BR OVC008 FM131400 35013KT P6SM OVC015 FM132200 35010KT P6SM OVC025

Stav a předpovědi počasí z více než 4 000 letišť (zprávy METAR a TAF).

Červené a žluté tečky na mapě představují dostupné meteorologické stanice.

Když kurzor umístíte na tečku, zobrazí se název stanice.

Pak kliknutím zobrazíte stav a předpověď počasí.

Chcete-li změnit mapu, kliknutím na zelené tlačítko se znaménkem +mapu přiblížíte, kliknutím na zelené tlačítko se znaménkem – mapu oddálíte a kliknutím na zelené šipky přejdete na sousední mapy.


METAR-TAF: